^^
Datos históricos de la estación: Murcia-Puente Tocinos
Diario Informe para Septiembre 6, 2019 Unidades:  Ingés    Métrico   Ambas
Diario Semanal Mensual Anual
  Máxima: Mínima: Promedio:
Temperatura: 101.1 °F 76.6 °F 85.8 °F
Punto de rocio: 71.6 °F 57.7 °F 68 °F
Humedad: 81.2% 24.2% 59%
Velocidad viento: 14.5mph 0mph 5.1mph
Racha viento: 32.2mph - -
Viento- - SSE
Presión: 29.9 in 29.8 in -
Precipitación: 0 in    
 
 
Tabla de datos para Septiembre 6, 2019
Hora Temperatura Punto de rocio Presión Viento Velocidad viento Racha viento Humedad Intensidad lluvia(por hora) Nubes
00:04 80.1 °F 70.7 °F 29.9 in ESE 4 mph 8.1 mph 73% 0 in
00:09 80.1 °F 70.5 °F 29.9 in ESE 3.9 mph 8 mph 73% 0 in
00:14 80.1 °F 70.2 °F 29.9 in ESE 3.6 mph 8.1 mph 72.4% 0 in
00:19 79.9 °F 70 °F 29.9 in SE 3.6 mph 8 mph 72% 0 in
00:24 79.9 °F 70.2 °F 29.9 in ESE 3.6 mph 6 mph 72.3% 0 in
00:29 79.9 °F 70 °F 29.9 in Sur 3.5 mph 6 mph 72% 0 in
00:34 80.1 °F 70.2 °F 29.9 in SO 2.9 mph 6.9 mph 72% 0 in
00:39 79.9 °F 70.2 °F 29.9 in NNO 3 mph 9.2 mph 72.2% 0 in
00:44 79.5 °F 70.2 °F 29.9 in North 3.6 mph 9 mph 73% 0 in
00:49 79.5 °F 70.3 °F 29.9 in NO 3.5 mph 6 mph 73.5% 0 in
00:54 79.3 °F 70.3 °F 29.9 in NNO 3.1 mph 6 mph 74% 0 in
00:59 79.3 °F 70.3 °F 29.9 in NO 3 mph 5 mph 74% 0 in
01:04 79.3 °F 70.3 °F 29.9 in NNO 2.9 mph 5.9 mph 74% 0 in
01:09 79.3 °F 70.5 °F 29.9 in NO 2.9 mph 6 mph 74.9% 0 in
01:14 79.2 °F 70.5 °F 29.9 in NO 3.1 mph 6 mph 75.1% 0 in
01:19 79 °F 70.9 °F 29.9 in NNO 3.1 mph 7.4 mph 76% 0 in
01:24 78.6 °F 70.9 °F 29.9 in NO 3.1 mph 7.4 mph 77% 0 in
01:29 78.4 °F 70.9 °F 29.9 in NO 3.3 mph 7 mph 77.8% 0 in
01:34 78.4 °F 71.1 °F 29.9 in NO 4.3 mph 8.1 mph 78% 0 in
01:39 78.3 °F 71.1 °F 29.9 in NO 4.2 mph 8 mph 78.6% 0 in
01:44 78.3 °F 71.2 °F 29.9 in NO 4 mph 6.9 mph 79% 0 in
01:49 78.1 °F 71.1 °F 29.9 in ONO 3.9 mph 7 mph 79% 0 in
01:54 78.1 °F 71.4 °F 29.9 in ONO 3.6 mph 6 mph 80% 0 in
01:59 77.9 °F 71.2 °F 29.9 in ONO 3.5 mph 5.8 mph 80% 0 in
02:04 77.7 °F 71.4 °F 29.9 in Oeste 3.1 mph 6 mph 80.8% 0 in
02:09 77.7 °F 71.4 °F 29.9 in OSO 3.1 mph 6.9 mph 81% 0 in
02:14 77.5 °F 71.2 °F 29.9 in SSO 3.1 mph 9.7 mph 81% 0 in
02:19 77.7 °F 71.4 °F 29.9 in SO 3.2 mph 10 mph 81% 0 in
02:24 77.9 °F 71.6 °F 29.9 in OSO 4 mph 8 mph 81% 0 in
02:29 77.9 °F 71.6 °F 29.9 in SSO 3.8 mph 5.8 mph 80.7% 0 in
02:34 78.1 °F 71.4 °F 29.9 in Oeste 2.9 mph 6.9 mph 80% 0 in
02:39 78.3 °F 71.4 °F 29.9 in ESE 3 mph 9.2 mph 79.6% 0 in
02:44 78.3 °F 71.2 °F 29.9 in Este 3.6 mph 9 mph 79% 0 in
02:49 78.3 °F 71.2 °F 29.9 in NE 3.3 mph 4.6 mph 79% 0 in
02:54 78.3 °F 71.1 °F 29.9 in NE 2 mph 5 mph 79% 0 in
02:59 78.1 °F 71.4 °F 29.9 in NE 2 mph 4.6 mph 79.9% 0 in
03:04 77.9 °F 71.2 °F 29.9 in NE 2 mph 5 mph 80% 0 in
03:09 77.7 °F 71.1 °F 29.9 in ENE 2.1 mph 5 mph 80% 0 in
03:14 77.7 °F 71.2 °F 29.9 in NNE 2.4 mph 5.2 mph 80.5% 0 in
03:19 77.5 °F 71.2 °F 29.9 in NNE 2.3 mph 5 mph 81% 0 in
03:24 77.7 °F 71.4 °F 29.9 in ENE 2 mph 4.7 mph 81% 0 in
03:29 77.5 °F 71.2 °F 29.9 in NE 2.1 mph 5 mph 81% 0 in
03:34 77.5 °F 71.2 °F 29.9 in ENE 2.4 mph 5 mph 80.9% 0 in
03:39 77.4 °F 70.5 °F 29.9 in ENE 2.5 mph 5.2 mph 79.6% 0 in
03:44 77.4 °F 70.7 °F 29.9 in ENE 2.9 mph 5.9 mph 80% 0 in
03:49 77.4 °F 70.5 °F 29.9 in NE 2.7 mph 6 mph 79.5% 0 in
03:54 77.4 °F 70.3 °F 29.9 in Este 2 mph 5 mph 79% 0 in
03:59 77.4 °F 70 °F 29.9 in ENE 2.1 mph 5.2 mph 78.2% 0 in
04:04 77.4 °F 70 °F 29.9 in NNO 2.4 mph 5 mph 78% 0 in
04:09 77.4 °F 70 °F 29.9 in NNO 2.4 mph 5 mph 78% 0 in
04:14 77.4 °F 70.2 °F 29.9 in NNO 2.4 mph 5 mph 78.5% 0 in
04:19 77.4 °F 70.2 °F 29.9 in NNO 2.3 mph 4 mph 78.7% 0 in
04:24 77.4 °F 70.7 °F 29.9 in NNO 1.8 mph 3.6 mph 79.9% 0 in
04:29 77.4 °F 70.9 °F 29.9 in NNO 1.9 mph 4 mph 80.5% 0 in
04:34 77.4 °F 71.1 °F 29.9 in NO 2 mph 4 mph 81% 0 in
04:39 77.2 °F 70.9 °F 29.9 in ONO 2 mph 4 mph 81% 0 in
04:44 77.2 °F 70.9 °F 29.9 in SSO 1.8 mph 4.6 mph 81.1% 0 in
04:49 77.2 °F 71.1 °F 29.9 in ESE 1.9 mph 5.2 mph 81.2% 0 in
04:54 77.2 °F 70.9 °F 29.9 in ESE 2.4 mph 5 mph 81% 0 in
04:59 77.2 °F 70.9 °F 29.9 in ESE 2.2 mph 4.6 mph 81% 0 in
05:04 77 °F 70.5 °F 29.9 in SE 1.8 mph 5 mph 80.2% 0 in
05:09 76.8 °F 70.2 °F 29.9 in SE 1.9 mph 5 mph 80% 0 in
05:14 76.8 °F 70.2 °F 29.9 in SE 2 mph 5 mph 80% 0 in
05:19 76.8 °F 70 °F 29.9 in SSE 2.1 mph 5.2 mph 79.3% 0 in
05:24 76.8 °F 69.8 °F 29.9 in SSE 2.9 mph 5 mph 79% 0 in
05:29 77 °F 70.2 °F 29.9 in SSE 2.6 mph 4 mph 79% 0 in
05:34 77.2 °F 70.2 °F 29.9 in SSE 1.4 mph 4.7 mph 79% 0 in
05:39 77.2 °F 70.2 °F 29.9 in SO 1.5 mph 5 mph 79% 0 in
05:44 77.4 °F 70.3 °F 29.9 in SO 2 mph 5 mph 79% 0 in
05:49 77.4 °F 70.3 °F 29.9 in SO 2.2 mph 5.8 mph 79% 0 in
05:54 77.4 °F 70.3 °F 29.9 in SO 2.9 mph 6 mph 79% 0 in
05:59 77.4 °F 70.3 °F 29.9 in SO 2.9 mph 6 mph 79% 0 in
06:04 77.4 °F 70.3 °F 29.9 in SSO 3.1 mph 5.4 mph 79% 0 in
06:09 77.4 °F 70.2 °F 29.9 in SO 3.1 mph 6.4 mph 78.7% 0 in
06:14 77.2 °F 69.8 °F 29.9 in OSO 3.1 mph 7 mph 78% 0 in
06:19 77.2 °F 69.8 °F 29.9 in SO 3.1 mph 7 mph 78% 0 in
06:24 77.2 °F 69.8 °F 29.9 in OSO 3.1 mph 6.2 mph 78% 0 in
06:29 77.2 °F 69.8 °F 29.9 in OSO 3.1 mph 6 mph 78% 0 in
06:34 77.2 °F 69.8 °F 29.9 in OSO 3.1 mph 5 mph 78% 0 in
06:39 77.2 °F 69.8 °F 29.9 in OSO 2.9 mph 5.8 mph 77.9% 0 in
06:44 77 °F 69.6 °F 29.9 in OSO 2 mph 6 mph 77.8% 0 in
06:49 77 °F 69.3 °F 29.9 in OSO 2 mph 4 mph 77% 0 in
06:54 77 °F 69.3 °F 29.9 in OSO 1.8 mph 4.7 mph 77% 0 in
06:59 76.8 °F 69.1 °F 29.9 in OSO 2.1 mph 5 mph 77% 0 in
07:04 76.8 °F 69.1 °F 29.9 in OSO 2.9 mph 5 mph 77% 0 in
07:09 76.8 °F 69.1 °F 29.9 in OSO 2.8 mph 5 mph 77% 0 in
07:14 76.8 °F 69.1 °F 29.9 in OSO 2.4 mph 6.9 mph 77% 0 in
07:19 76.8 °F 69.1 °F 29.9 in SO 2.4 mph 7 mph 76.9% 0 in
07:24 76.8 °F 68.7 °F 29.9 in OSO 2.4 mph 6.2 mph 76.1% 0 in
07:29 76.6 °F 68.5 °F 29.9 in OSO 2.6 mph 7.4 mph 76% 0 in
07:34 76.6 °F 68.5 °F 29.9 in OSO 3.6 mph 7 mph 76% 0 in
07:39 76.6 °F 68.7 °F 29.9 in OSO 3.7 mph 6 mph 76.5% 0 in
07:44 76.6 °F 68.9 °F 29.9 in OSO 4 mph 6 mph 77% 0 in
07:49 76.6 °F 68.9 °F 29.9 in SO 3.8 mph 5 mph 77% 0 in
07:54 76.6 °F 68.9 °F 29.9 in SSO 2.9 mph 4.3 mph 77% 0 in
07:59 76.6 °F 68.9 °F 29.9 in SE 2.8 mph 5 mph 77% 0 in
08:04 76.6 °F 69.3 °F 29.9 in ESE 2.4 mph 5.2 mph 77.6% 0 in
08:09 76.6 °F 69.1 °F 29.9 in ESE 2.4 mph 5 mph 77.5% 0 in
08:14 76.6 °F 69.1 °F 29.9 in SSE 2.4 mph 5 mph 77.4% 0 in
08:19 76.8 °F 69.3 °F 29.9 in ESE 2.4 mph 5 mph 77.3% 0 in
08:24 77.2 °F 69.3 °F 29.9 in ESE 2.4 mph 5 mph 76.8% 0 in
08:29 77.4 °F 69.4 °F 29.9 in SE 2.3 mph 5 mph 76.6% 0 in
08:34 78.1 °F 69.8 °F 29.9 in SE 1.8 mph 3 mph 76.1% 0 in
08:39 78.4 °F 69.8 °F 29.9 in SSE 1.5 mph 3.6 mph 74.6% 0 in
08:44 78.8 °F 69.8 °F 29.9 in Calm   4 mph 73.8% 0 in
08:49 79.3 °F 69.6 °F 29.9 in Calm   4 mph 72.4% 0 in
08:54 79.5 °F 69.6 °F 29.9 in Calm   4 mph 71.8% 0 in
08:59 79.9 °F 69.6 °F 29.9 in NNO 0.4 mph 5 mph 71.4% 0 in
09:04 79.9 °F 69.6 °F 29.9 in NNO 1.8 mph 5 mph 71% 0 in
09:09 79.9 °F 69.6 °F 29.9 in NNO 1.7 mph 4.3 mph 71.1% 0 in
09:14 79.9 °F 69.6 °F 29.9 in Oeste 1.4 mph 5 mph 71% 0 in
09:19 80.1 °F 69.6 °F 29.9 in OSO 1.6 mph 5 mph 71% 0 in
09:24 80.1 °F 69.8 °F 29.9 in Oeste 2.4 mph 5 mph 71% 0 in
09:29 80.1 °F 69.8 °F 29.9 in SSO 2.5 mph 5.8 mph 70.9% 0 in
09:34 80.2 °F 69.6 °F 29.9 in Sur 2.9 mph 6 mph 70% 0 in
09:39 80.8 °F 69.6 °F 29.9 in Sur 2.9 mph 7.4 mph 68.8% 0 in
09:44 81 °F 69.4 °F 29.9 in SSE 2.9 mph 7 mph 68% 0 in
09:49 81.1 °F 69.6 °F 29.9 in SO 3 mph 7.4 mph 67.9% 0 in
09:54 81.1 °F 69.6 °F 29.9 in SO 4 mph 7 mph 67.7% 0 in
09:59 81.3 °F 69.8 °F 29.9 in SSO 3.8 mph 7 mph 68% 0 in
10:04 81.9 °F 69.8 °F 29.9 in SO 3.1 mph 6.2 mph 67.3% 0 in
10:09 82 °F 69.6 °F 29.9 in Sur 3.1 mph 6 mph 66% 0 in
10:14 82.4 °F 69.8 °F 29.9 in SE 3.1 mph 5 mph 66% 0 in
10:19 82.8 °F 69.8 °F 29.9 in Oeste 3 mph 5 mph 65.1% 0 in
10:24 82.9 °F 69.4 °F 29.9 in ONO 2.4 mph 5 mph 64% 0 in
10:29 83.1 °F 69.3 °F 29.9 in NO 2.5 mph 5.9 mph 63% 0 in
10:34 83.5 °F 69.4 °F 29.9 in Oeste 2.9 mph 6.9 mph 62.9% 0 in
10:39 83.7 °F 69.4 °F 29.9 in NO 2.9 mph 7 mph 62.4% 0 in
10:44 84.2 °F 69.4 °F 29.9 in NNE 3.1 mph 6.2 mph 61.3% 0 in
10:49 84.7 °F 69.3 °F 29.9 in OSO 3 mph 6 mph 60% 0 in
10:54 84.7 °F 69.3 °F 29.9 in Oeste 2.9 mph 6 mph 59.9% 0 in
10:59 84.9 °F 69.1 °F 29.9 in NO 2.9 mph 6.2 mph 59% 0 in
11:04 85.1 °F 68.9 °F 29.9 in SO 3.1 mph 6.9 mph 58.2% 0 in
11:09 85.3 °F 68.5 °F 29.9 in Sur 3 mph 7 mph 57.3% 0 in
11:14 85.5 °F 68.4 °F 29.9 in Oeste 2.9 mph 5 mph 56.6% 0 in
11:19 86 °F 68.5 °F 29.9 in SO 2.8 mph 5 mph 56% 0 in
11:24 86.5 °F 68.5 °F 29.9 in SO 2.4 mph 6.4 mph 55.1% 0 in
11:29 86.5 °F 68.5 °F 29.9 in SSO 2.6 mph 7 mph 55% 0 in
11:34 86.7 °F 68.4 °F 29.9 in Oeste 3.6 mph 6.9 mph 54.4% 0 in
11:39 86.7 °F 68.2 °F 29.9 in NO 3.5 mph 7 mph 54% 0 in
11:44 87.3 °F 68.5 °F 29.9 in Este 2.9 mph 5 mph 53.7% 0 in
11:49 87.8 °F 68.5 °F 29.9 in ESE 2.7 mph 4.7 mph 52.9% 0 in
11:54 88.2 °F 68.7 °F 29.9 in SSO 2 mph 5.8 mph 52.5% 0 in
11:59 88.3 °F 68.5 °F 29.9 in OSO 2.2 mph 6 mph 52% 0 in
12:04 89.1 °F 68.9 °F 29.9 in North 2.9 mph 6 mph 51.7% 0 in
12:09 89.4 °F 68.5 °F 29.9 in NO 2.9 mph 5.8 mph 50.6% 0 in
12:14 89.4 °F 68.5 °F 29.9 in NNO 2.9 mph 6.9 mph 50.3% 0 in
12:19 89.6 °F 68.7 °F 29.9 in North 3 mph 7 mph 50.4% 0 in
12:24 90 °F 68.9 °F 29.9 in NNE 3.6 mph 7.4 mph 50.1% 0 in
12:29 90 °F 68.9 °F 29.9 in NE 3.7 mph 7 mph 50.1% 0 in
12:34 90.1 °F 68.9 °F 29.9 in NE 4 mph 9.2 mph 49.9% 0 in
12:39 90.3 °F 69.3 °F 29.9 in NNE 4 mph 9.2 mph 49.9% 0 in
12:44 90.9 °F 69.3 °F 29.9 in NNE 4.3 mph 9.7 mph 49.2% 0 in
12:49 91.2 °F 69.3 °F 29.9 in NE 4.5 mph 10.7 mph 48.9% 0 in
12:54 91.6 °F 69.1 °F 29.9 in NNE 5.4 mph 11.2 mph 48% 0 in
12:59 91.8 °F 68.7 °F 29.9 in NNE 5.7 mph 11 mph 47.1% 0 in
13:04 92.1 °F 68.7 °F 29.9 in NE 6.9 mph 11 mph 46.7% 0 in
13:09 92.5 °F 68.9 °F 29.9 in NE 6.8 mph 11.5 mph 46.1% 0 in
13:14 92.7 °F 68.7 °F 29.9 in NNE 6.2 mph 12.7 mph 45.8% 0 in
13:19 93 °F 68.5 °F 29.9 in NNE 6.2 mph 13 mph 45% 0 in
13:24 93.6 °F 68.7 °F 29.8 in NE 6.4 mph 13 mph 44.5% 0 in
13:29 94.3 °F 68.9 °F 29.8 in NE 6.6 mph 15 mph 44% 0 in
13:34 94.5 °F 69.3 °F 29.8 in NE 7.4 mph 15 mph 44% 0 in
13:39 94.6 °F 69.3 °F 29.8 in NE 7.3 mph 14 mph 43.8% 0 in
13:44 94.8 °F 69.3 °F 29.8 in NE 6.9 mph 19.7 mph 43.6% 0 in
13:49 95.2 °F 70 °F 29.8 in NE 7.5 mph 20 mph 44.2% 0 in
13:54 95.5 °F 70.5 °F 29.8 in NE 10 mph 15 mph 44.4% 0 in
13:59 95.9 °F 70.2 °F 29.8 in NE 9.6 mph 16.1 mph 43.5% 0 in
14:04 96.1 °F 70.7 °F 29.8 in NE 8.1 mph 16 mph 44.2% 0 in
14:09 95.7 °F 70 °F 29.8 in NE 8.2 mph 15 mph 43.6% 0 in
14:14 95.9 °F 68.9 °F 29.8 in NNE 8.7 mph 13 mph 41.9% 0 in
14:19 96.3 °F 68.7 °F 29.8 in ENE 8.3 mph 16.3 mph 41.1% 0 in
14:24 96.3 °F 70.5 °F 29.8 in Este 6.4 mph 16 mph 43.5% 0 in
14:29 95.7 °F 67.5 °F 29.8 in ESE 6.4 mph 12 mph 40% 0 in
14:34 96.6 °F 66.6 °F 29.8 in SE 6.4 mph 12 mph 37.7% 0 in
14:39 97.2 °F 68.2 °F 29.8 in SE 6.2 mph 11.5 mph 39% 0 in
14:44 97 °F 68 °F 29.8 in ESE 5.4 mph 14 mph 39.1% 0 in
14:49 96.4 °F 67.5 °F 29.8 in ESE 5.8 mph 14 mph 39% 0 in
14:54 97.2 °F 68 °F 29.8 in SE 8.1 mph 12.7 mph 39% 0 in
14:59 97.5 °F 67.6 °F 29.8 in ESE 8 mph 14 mph 38% 0 in
15:04 97.9 °F 67.5 °F 29.8 in ESE 7.4 mph 14 mph 37.3% 0 in
15:09 98.1 °F 67.3 °F 29.8 in ESE 7.2 mph 13 mph 36.9% 0 in
15:14 98.8 °F 66.9 °F 29.8 in ESE 6.4 mph 10 mph 35.9% 0 in
15:19 99.5 °F 65.3 °F 29.8 in SE 6.2 mph 11.5 mph 33% 0 in
15:24 100 °F 63.3 °F 29.8 in SSE 5.2 mph 23.5 mph 30.4% 0 in
15:29 100.8 °F 58.6 °F 29.8 in Sur 6 mph 23.5 mph 25.2% 0 in
15:34 101.1 °F 57.9 °F 29.8 in Sur 10.2 mph 23 mph 24.2% 0 in
15:39 101.1 °F 58.6 °F 29.8 in SSO 10.9 mph 25.3 mph 24.8% 0 in
15:44 100.8 °F 58.6 °F 29.8 in Sur 13.7 mph 25 mph 25.1% 0 in
15:49 100.6 °F 59.4 °F 29.8 in Sur 13.4 mph 22 mph 25.9% 0 in
15:54 100 °F 60.1 °F 29.8 in Sur 11.8 mph 18 mph 27% 0 in
15:59 99.9 °F 60.1 °F 29.8 in SSE 11.1 mph 14 mph 27.3% 0 in
16:04 99.5 °F 64 °F 29.8 in ESE 8.5 mph 14 mph 31.5% 0 in
16:09 99 °F 65.1 °F 29.8 in ESE 8.2 mph 11.5 mph 33.3% 0 in
16:14 99 °F 64.8 °F 29.8 in ESE 7.4 mph 12 mph 32.9% 0 in
16:19 98.8 °F 64.4 °F 29.8 in Este 7.3 mph 12 mph 32.7% 0 in
16:24 98.4 °F 64.6 °F 29.8 in Este 6.9 mph 12 mph 33.3% 0 in
16:29 98.6 °F 63.7 °F 29.8 in ESE 6.5 mph 10.4 mph 32% 0 in
16:34 98.8 °F 63.3 °F 29.8 in Este 5.4 mph 10 mph 31.5% 0 in
16:39 99.1 °F 63.1 °F 29.8 in ESE 4.8 mph 8.1 mph 30.9% 0 in
16:44 99.5 °F 61.2 °F 29.8 in Sur 3.6 mph 13.8 mph 28.5% 0 in
16:49 99.9 °F 60.4 °F 29.8 in SSO 4.9 mph 15 mph 27.6% 0 in
16:54 99.9 °F 60.8 °F 29.8 in SSO 7.4 mph 15 mph 27.9% 0 in
16:59 100 °F 60.6 °F 29.8 in OSO 7.9 mph 27.3 mph 27.5% 0 in
17:04 100.2 °F 60.1 °F 29.9 in Oeste 8.7 mph 32.2 mph 26.9% 0 in
17:09 99.5 °F 57.9 °F 29.9 in OSO 10.6 mph 32 mph 25.4% 0 in
17:14 99 °F 59.2 °F 29.9 in SO 14.5 mph 28 mph 27.1% 0 in
17:19 98.2 °F 58.5 °F 29.9 in OSO 13.4 mph 22 mph 26.8% 0 in
17:24 97.7 °F 57.7 °F 29.9 in SO 10.7 mph 16 mph 26.7% 0 in
17:29 97.2 °F 58.5 °F 29.9 in SO 10 mph 16.3 mph 27.9% 0 in
17:34 96.6 °F 58.5 °F 29.9 in SO 8.5 mph 16 mph 28.3% 0 in
17:39 96.6 °F 58.6 °F 29.8 in Oeste 7.4 mph 12 mph 28.4% 0 in
17:44 96.8 °F 58.5 °F 29.8 in OSO 5.2 mph 9 mph 28.1% 0 in
17:49 97.2 °F 58.3 °F 29.8 in OSO 4.3 mph 6.9 mph 27.8% 0 in
17:54 97.3 °F 58.5 °F 29.8 in Sur 2.4 mph 7 mph 27.7% 0 in
17:59 97.3 °F 58.5 °F 29.8 in SSE 2.5 mph 5.2 mph 27.7% 0 in
18:04 97.3 °F 58.5 °F 29.8 in SSE 2.9 mph 5 mph 27.6% 0 in
18:09 97.3 °F 58.1 °F 29.8 in SSE 2.6 mph 5.2 mph 27.2% 0 in
18:14 97.3 °F 58.6 °F 29.8 in ENE 2 mph 5.8 mph 27.8% 0 in
18:19 97.2 °F 58.6 °F 29.8 in ENE 2.1 mph 6 mph 28% 0 in
18:24 97.2 °F 58.8 °F 29.8 in ENE 2.4 mph 6.9 mph 28.2% 0 in
18:29 96.8 °F 59.2 °F 29.8 in NE 3 mph 7 mph 29% 0 in
18:34 96.4 °F 59.9 °F 29.8 in NE 4.3 mph 7 mph 29.9% 0 in
18:39 96.3 °F 59.9 °F 29.8 in NE 4.2 mph 7 mph 30.1% 0 in
18:44 96.3 °F 60.6 °F 29.8 in NE 4 mph 7.6 mph 31% 0 in
18:49 95.5 °F 60.3 °F 29.8 in NE 4.2 mph 8.5 mph 31% 0 in
18:54 95.2 °F 59.9 °F 29.8 in NNE 4.7 mph 9.2 mph 31% 0 in
18:59 94.8 °F 59.7 °F 29.8 in NNE 5.2 mph 9.2 mph 31.2% 0 in
19:04 94.8 °F 59.5 °F 29.8 in NE 6.2 mph 9.7 mph 31% 0 in
19:09 94.8 °F 59.7 °F 29.8 in NNE 6 mph 10 mph 31.3% 0 in
19:14 94.8 °F 59.9 °F 29.8 in NE 5.4 mph 10.4 mph 31.4% 0 in
19:19 94.6 °F 61.7 °F 29.8 in NE 5.8 mph 15.2 mph 33.7% 0 in
19:24 94.1 °F 66.4 °F 29.8 in NNE 6.9 mph 15 mph 40.5% 0 in
19:29 93.2 °F 68 °F 29.8 in NE 7.4 mph 15 mph 44% 0 in
19:34 92.5 °F 69.1 °F 29.8 in NE 8.5 mph 16.3 mph 46.7% 0 in
19:39 91.8 °F 69.8 °F 29.8 in NE 8.9 mph 18.1 mph 49% 0 in
19:44 91 °F 69.8 °F 29.8 in NE 10 mph 18.4 mph 49.9% 0 in
19:49 90.9 °F 69.6 °F 29.8 in NNE 10.1 mph 18.4 mph 50% 0 in
19:54 90.1 °F 69.6 °F 29.8 in NE 10.2 mph 18.4 mph 51% 0 in
19:59 89.4 °F 69.6 °F 29.8 in NNE 11 mph 21.5 mph 52.3% 0 in
20:04 89.2 °F 70 °F 29.8 in NNE 12.5 mph 22 mph 53.3% 0 in
20:09 88.7 °F 70.5 °F 29.8 in NNE 12.4 mph 21 mph 55.2% 0 in
20:14 88.2 °F 70.7 °F 29.8 in NNE 12.3 mph 19 mph 56.4% 0 in
20:19 87.8 °F 70.7 °F 29.8 in NNE 11.7 mph 19 mph 57% 0 in
20:24 87.4 °F 70.5 °F 29.8 in NNE 10.2 mph 19 mph 57.3% 0 in
20:29 87.1 °F 70.5 °F 29.8 in NNE 10.9 mph 18 mph 58% 0 in
20:34 86.7 °F 70.2 °F 29.8 in NNE 12.5 mph 18 mph 58% 0 in
20:39 86.5 °F 70 °F 29.8 in NE 11.8 mph 17.3 mph 58% 0 in
20:44 86.4 °F 69.8 °F 29.8 in NE 10.2 mph 17 mph 58% 0 in
20:49 86.4 °F 69.8 °F 29.8 in NE 9.8 mph 15 mph 58% 0 in
20:54 86.4 °F 70.3 °F 29.8 in NE 8.7 mph 15 mph 58.9% 0 in
20:59 86.4 °F 70.3 °F 29.8 in NE 8.7 mph 16.8 mph 59% 0 in
21:04 86.4 °F 70 °F 29.8 in NE 8.7 mph 18.5 mph 58.3% 0 in
21:09 86.4 °F 69.6 °F 29.8 in Este 9.1 mph 19 mph 57.5% 0 in
21:14 86 °F 70.3 °F 29.8 in ESE 10.2 mph 21.9 mph 59.9% 0 in
21:19 85.3 °F 70.7 °F 29.8 in Este 10.4 mph 22 mph 61.5% 0 in
21:24 85.1 °F 70.5 °F 29.8 in ESE 10.7 mph 18.4 mph 62% 0 in
21:29 85.1 °F 70.2 °F 29.8 in SE 10.1 mph 18 mph 61.1% 0 in
21:34 85.5 °F 69.6 °F 29.8 in SSE 8.7 mph 13.7 mph 59.2% 0 in
21:39 86.2 °F 69.1 °F 29.8 in SSE 8.3 mph 14 mph 56.7% 0 in
21:44 87.1 °F 69.1 °F 29.8 in Sur 7.6 mph 14 mph 55.4% 0 in
21:49 87.4 °F 70 °F 29.9 in SSO 7.5 mph 17.3 mph 56.5% 0 in
21:54 86.7 °F 70.7 °F 29.9 in SO 7.4 mph 18.5 mph 59% 0 in
21:59 85.6 °F 70.2 °F 29.9 in SSO 9.3 mph 24.2 mph 60% 0 in
22:04 85.1 °F 69.8 °F 29.9 in SSE 13 mph 24 mph 60% 0 in
22:09 84.7 °F 69.6 °F 29.9 in SE 12.5 mph 22 mph 60.6% 0 in
22:14 84.6 °F 69.8 °F 29.9 in SE 11.4 mph 15 mph 61.6% 0 in
22:19 84.2 °F 70 °F 29.9 in Sur 9.5 mph 14 mph 62.2% 0 in
22:24 83.8 °F 70.2 °F 29.9 in OSO 5.4 mph 8.5 mph 63.3% 0 in
22:29 83.7 °F 70.3 °F 29.9 in Oeste 5 mph 9 mph 64% 0 in
22:34 83.7 °F 70.2 °F 29.9 in Oeste 4 mph 11.2 mph 64% 0 in
22:39 83.7 °F 69.8 °F 29.9 in SSO 4.7 mph 16.1 mph 63.4% 0 in
22:44 83.3 °F 68.9 °F 29.9 in SSO 6.2 mph 20.7 mph 62.1% 0 in
22:49 83.3 °F 67.8 °F 29.9 in SSO 8 mph 21 mph 59.5% 0 in
22:54 83.5 °F 67.5 °F 29.9 in SSO 11.8 mph 21 mph 58.8% 0 in
22:59 83.7 °F 66.9 °F 29.9 in SSO 12 mph 20.7 mph 57.2% 0 in
23:04 83.8 °F 66.6 °F 29.9 in Sur 12.3 mph 21 mph 56.1% 0 in
23:09 83.8 °F 67.5 °F 29.9 in SSE 12.1 mph 20 mph 57.9% 0 in
23:14 83.1 °F 67.8 °F 29.9 in SSE 11.4 mph 19.7 mph 59.9% 0 in
23:19 82.9 °F 68 °F 29.9 in SSE 11.1 mph 20 mph 61% 0 in
23:24 82.9 °F 67.8 °F 29.9 in SE 10.2 mph 15 mph 60.6% 0 in
23:29 82.9 °F 67.5 °F 29.9 in SSE 9.1 mph 15 mph 59.6% 0 in
23:34 82.9 °F 67.1 °F 29.9 in SO 6.4 mph 13 mph 59% 0 in
23:39 83.1 °F 67.3 °F 29.9 in ENE 5.7 mph 9 mph 58.9% 0 in
23:44 83.1 °F 67.3 °F 29.9 in NE 4 mph 8.1 mph 59% 0 in
23:49 83.1 °F 67.3 °F 29.9 in ENE 4.1 mph 9.7 mph 59.1% 0 in
23:54 82.9 °F 67.8 °F 29.9 in NE 4.3 mph 10 mph 60.4% 0 in
23:59 82.8 °F 67.8 °F 29.9 in NE 5 mph 10.4 mph 60.8% 0 in
Murcia-Puente Tocinos, España
Compliments of Weather Underground - 3 mb

La estación de MeteoMurcia.com, publica sus datos en los siguientes proyectos:

Weather Underground PWS IMURCIAP2 Meteoclimatic www.awekas.at

W3Counter
Web Analytics